sensor_id;sensor_type;location;lat;lon;timestamp;P1;durP1;ratioP1;P2;durP2;ratioP2
1693;SDS011;844;47.058;15.472;2023-04-06T00:01:13;6.70;;;5.17;;
1693;SDS011;844;47.058;15.472;2023-04-06T00:03:44;5.90;;;4.60;;
1693;SDS011;844;47.058;15.472;2023-04-06T00:06:14;8.60;;;4.43;;
1693;SDS011;844;47.058;15.472;2023-04-06T00:08:47;6.67;;;4.63;;
1693;SDS011;844;47.058;15.472;2023-04-06T00:11:17;9.53;;;4.63;;
1693;SDS011;844;47.058;15.472;2023-04-06T00:13:47;5.30;;;4.80;;
1693;SDS011;844;47.058;15.472;2023-04-06T00:16:18;4.80;;;3.67;;
1693;SDS011;844;47.058;15.472;2023-04-06T00:18:51;5.10;;;4.60;;
1693;SDS011;844;47.058;15.472;2023-04-06T00:21:23;4.93;;;3.50;;
1693;SDS011;844;47.058;15.472;2023-04-06T00:23:56;5.33;;;4.33;;
1693;SDS011;844;47.058;15.472;2023-04-06T00:26:27;4.70;;;3.77;;
1693;SDS011;844;47.058;15.472;2023-04-06T00:28:56;6.00;;;4.40;;
1693;SDS011;844;47.058;15.472;2023-04-06T00:31:27;5.67;;;4.77;;
1693;SDS011;844;47.058;15.472;2023-04-06T00:33:57;7.40;;;3.97;;
1693;SDS011;844;47.058;15.472;2023-04-06T00:36:28;4.53;;;4.13;;
1693;SDS011;844;47.058;15.472;2023-04-06T00:39:00;4.97;;;4.07;;
1693;SDS011;844;47.058;15.472;2023-04-06T00:41:30;5.30;;;3.50;;
1693;SDS011;844;47.058;15.472;2023-04-06T00:44:01;10.30;;;4.10;;
1693;SDS011;844;47.058;15.472;2023-04-06T00:46:32;6.50;;;4.50;;
1693;SDS011;844;47.058;15.472;2023-04-06T00:49:03;5.93;;;4.13;;
1693;SDS011;844;47.058;15.472;2023-04-06T00:51:35;5.97;;;4.20;;
1693;SDS011;844;47.058;15.472;2023-04-06T00:54:07;5.10;;;4.60;;
1693;SDS011;844;47.058;15.472;2023-04-06T00:56:38;7.50;;;4.70;;
1693;SDS011;844;47.058;15.472;2023-04-06T00:59:11;7.17;;;5.10;;
1693;SDS011;844;47.058;15.472;2023-04-06T01:01:42;4.80;;;4.30;;
1693;SDS011;844;47.058;15.472;2023-04-06T01:04:13;5.70;;;4.70;;
1693;SDS011;844;47.058;15.472;2023-04-06T01:06:43;4.40;;;4.00;;
1693;SDS011;844;47.058;15.472;2023-04-06T01:09:16;4.83;;;4.40;;
1693;SDS011;844;47.058;15.472;2023-04-06T01:11:48;4.20;;;3.63;;
1693;SDS011;844;47.058;15.472;2023-04-06T01:14:19;5.80;;;4.60;;
1693;SDS011;844;47.058;15.472;2023-04-06T01:16:51;3.73;;;3.43;;
1693;SDS011;844;47.058;15.472;2023-04-06T01:19:22;5.10;;;3.90;;
1693;SDS011;844;47.058;15.472;2023-04-06T01:21:54;5.23;;;4.10;;
1693;SDS011;844;47.058;15.472;2023-04-06T01:24:28;3.23;;;2.90;;
1693;SDS011;844;47.058;15.472;2023-04-06T01:26:59;6.90;;;4.73;;
1693;SDS011;844;47.058;15.472;2023-04-06T01:29:29;6.23;;;4.17;;
1693;SDS011;844;47.058;15.472;2023-04-06T01:31:59;7.90;;;3.20;;
1693;SDS011;844;47.058;15.472;2023-04-06T01:34:29;4.00;;;3.40;;
1693;SDS011;844;47.058;15.472;2023-04-06T01:37:01;5.70;;;3.93;;
1693;SDS011;844;47.058;15.472;2023-04-06T01:39:34;4.50;;;4.10;;
1693;SDS011;844;47.058;15.472;2023-04-06T01:42:04;4.37;;;3.67;;
1693;SDS011;844;47.058;15.472;2023-04-06T01:44:35;3.93;;;3.43;;
1693;SDS011;844;47.058;15.472;2023-04-06T01:47:06;4.37;;;3.77;;
1693;SDS011;844;47.058;15.472;2023-04-06T01:49:36;7.40;;;4.07;;
1693;SDS011;844;47.058;15.472;2023-04-06T01:52:06;7.63;;;4.77;;
1693;SDS011;844;47.058;15.472;2023-04-06T01:54:37;8.00;;;4.70;;
1693;SDS011;844;47.058;15.472;2023-04-06T01:57:08;6.00;;;4.50;;
1693;SDS011;844;47.058;15.472;2023-04-06T01:59:39;7.83;;;5.40;;
1693;SDS011;844;47.058;15.472;2023-04-06T02:02:10;5.10;;;4.20;;
1693;SDS011;844;47.058;15.472;2023-04-06T02:04:40;6.33;;;4.50;;
1693;SDS011;844;47.058;15.472;2023-04-06T02:07:11;5.53;;;4.53;;
1693;SDS011;844;47.058;15.472;2023-04-06T02:09:43;8.00;;;4.13;;
1693;SDS011;844;47.058;15.472;2023-04-06T02:12:14;4.77;;;4.17;;
1693;SDS011;844;47.058;15.472;2023-04-06T02:14:45;6.87;;;4.37;;
1693;SDS011;844;47.058;15.472;2023-04-06T02:17:15;4.50;;;3.87;;
1693;SDS011;844;47.058;15.472;2023-04-06T02:19:45;5.23;;;3.50;;
1693;SDS011;844;47.058;15.472;2023-04-06T02:22:15;5.67;;;4.50;;
1693;SDS011;844;47.058;15.472;2023-04-06T02:24:47;4.83;;;4.30;;
1693;SDS011;844;47.058;15.472;2023-04-06T02:27:17;5.20;;;3.90;;
1693;SDS011;844;47.058;15.472;2023-04-06T02:29:47;6.10;;;4.50;;
1693;SDS011;844;47.058;15.472;2023-04-06T02:32:18;8.10;;;4.50;;
1693;SDS011;844;47.058;15.472;2023-04-06T02:34:48;5.57;;;4.87;;
1693;SDS011;844;47.058;15.472;2023-04-06T02:37:19;4.67;;;4.00;;
1693;SDS011;844;47.058;15.472;2023-04-06T02:39:52;5.60;;;4.30;;
1693;SDS011;844;47.058;15.472;2023-04-06T02:42:23;5.13;;;4.10;;
1693;SDS011;844;47.058;15.472;2023-04-06T02:44:53;5.73;;;5.00;;
1693;SDS011;844;47.058;15.472;2023-04-06T02:47:24;5.30;;;3.93;;
1693;SDS011;844;47.058;15.472;2023-04-06T02:49:55;4.97;;;4.20;;
1693;SDS011;844;47.058;15.472;2023-04-06T02:52:26;5.93;;;5.30;;
1693;SDS011;844;47.058;15.472;2023-04-06T02:54:58;5.90;;;5.00;;
1693;SDS011;844;47.058;15.472;2023-04-06T02:57:28;5.23;;;4.20;;
1693;SDS011;844;47.058;15.472;2023-04-06T02:59:59;4.40;;;4.00;;
1693;SDS011;844;47.058;15.472;2023-04-06T03:02:30;4.40;;;3.60;;
1693;SDS011;844;47.058;15.472;2023-04-06T03:05:03;4.63;;;4.20;;
1693;SDS011;844;47.058;15.472;2023-04-06T03:07:35;5.40;;;4.87;;
1693;SDS011;844;47.058;15.472;2023-04-06T03:10:08;7.07;;;4.27;;
1693;SDS011;844;47.058;15.472;2023-04-06T03:12:38;4.53;;;3.97;;
1693;SDS011;844;47.058;15.472;2023-04-06T03:15:09;8.83;;;5.43;;
1693;SDS011;844;47.058;15.472;2023-04-06T03:17:40;6.10;;;4.50;;
1693;SDS011;844;47.058;15.472;2023-04-06T03:20:11;4.90;;;4.40;;
1693;SDS011;844;47.058;15.472;2023-04-06T03:22:42;5.40;;;4.43;;
1693;SDS011;844;47.058;15.472;2023-04-06T03:25:15;4.63;;;3.60;;
1693;SDS011;844;47.058;15.472;2023-04-06T03:27:45;4.03;;;3.57;;
1693;SDS011;844;47.058;15.472;2023-04-06T03:30:16;6.07;;;4.57;;
1693;SDS011;844;47.058;15.472;2023-04-06T03:32:47;6.13;;;4.23;;
1693;SDS011;844;47.058;15.472;2023-04-06T03:35:18;4.57;;;3.70;;
1693;SDS011;844;47.058;15.472;2023-04-06T03:37:49;4.83;;;3.63;;
1693;SDS011;844;47.058;15.472;2023-04-06T03:40:26;5.10;;;3.43;;
1693;SDS011;844;47.058;15.472;2023-04-06T03:42:57;7.80;;;4.33;;
1693;SDS011;844;47.058;15.472;2023-04-06T03:45:27;5.73;;;4.20;;
1693;SDS011;844;47.058;15.472;2023-04-06T03:47:57;4.37;;;3.93;;
1693;SDS011;844;47.058;15.472;2023-04-06T03:50:28;6.60;;;4.50;;
1693;SDS011;844;47.058;15.472;2023-04-06T03:52:59;5.50;;;3.60;;
1693;SDS011;844;47.058;15.472;2023-04-06T03:55:32;7.83;;;3.57;;
1693;SDS011;844;47.058;15.472;2023-04-06T03:58:02;6.70;;;4.00;;
1693;SDS011;844;47.058;15.472;2023-04-06T04:00:40;5.03;;;4.50;;
1693;SDS011;844;47.058;15.472;2023-04-06T04:03:12;4.63;;;3.77;;
1693;SDS011;844;47.058;15.472;2023-04-06T04:05:42;5.90;;;4.33;;
1693;SDS011;844;47.058;15.472;2023-04-06T04:08:13;8.17;;;5.10;;
1693;SDS011;844;47.058;15.472;2023-04-06T04:10:45;5.50;;;3.77;;
1693;SDS011;844;47.058;15.472;2023-04-06T04:13:16;3.70;;;3.40;;
1693;SDS011;844;47.058;15.472;2023-04-06T04:15:47;4.40;;;4.00;;
1693;SDS011;844;47.058;15.472;2023-04-06T04:18:17;3.90;;;3.53;;
1693;SDS011;844;47.058;15.472;2023-04-06T04:20:48;4.93;;;4.53;;
1693;SDS011;844;47.058;15.472;2023-04-06T04:23:19;4.80;;;3.93;;
1693;SDS011;844;47.058;15.472;2023-04-06T04:25:52;4.40;;;3.97;;
1693;SDS011;844;47.058;15.472;2023-04-06T04:28:22;4.67;;;4.00;;
1693;SDS011;844;47.058;15.472;2023-04-06T04:30:53;8.13;;;4.30;;
1693;SDS011;844;47.058;15.472;2023-04-06T04:33:23;6.43;;;5.80;;
1693;SDS011;844;47.058;15.472;2023-04-06T04:35:54;5.30;;;4.37;;
1693;SDS011;844;47.058;15.472;2023-04-06T04:38:24;6.00;;;3.97;;
1693;SDS011;844;47.058;15.472;2023-04-06T04:40:57;6.43;;;4.50;;
1693;SDS011;844;47.058;15.472;2023-04-06T04:43:30;5.50;;;5.00;;
1693;SDS011;844;47.058;15.472;2023-04-06T04:46:02;5.53;;;4.10;;
1693;SDS011;844;47.058;15.472;2023-04-06T04:48:36;6.10;;;5.30;;
1693;SDS011;844;47.058;15.472;2023-04-06T04:51:06;6.20;;;4.70;;
1693;SDS011;844;47.058;15.472;2023-04-06T04:53:37;7.27;;;4.57;;
1693;SDS011;844;47.058;15.472;2023-04-06T04:56:09;7.70;;;5.50;;
1693;SDS011;844;47.058;15.472;2023-04-06T04:58:40;8.03;;;5.77;;
1693;SDS011;844;47.058;15.472;2023-04-06T05:01:10;6.73;;;5.17;;
1693;SDS011;844;47.058;15.472;2023-04-06T05:03:42;12.00;;;6.40;;
1693;SDS011;844;47.058;15.472;2023-04-06T05:06:12;6.93;;;5.57;;
1693;SDS011;844;47.058;15.472;2023-04-06T05:08:43;12.60;;;6.53;;
1693;SDS011;844;47.058;15.472;2023-04-06T05:11:15;7.20;;;6.50;;
1693;SDS011;844;47.058;15.472;2023-04-06T05:13:46;6.50;;;5.80;;
1693;SDS011;844;47.058;15.472;2023-04-06T05:16:17;7.27;;;6.30;;
1693;SDS011;844;47.058;15.472;2023-04-06T05:18:48;10.07;;;8.00;;
1693;SDS011;844;47.058;15.472;2023-04-06T05:21:19;10.03;;;8.00;;
1693;SDS011;844;47.058;15.472;2023-04-06T05:23:52;12.50;;;9.43;;
1693;SDS011;844;47.058;15.472;2023-04-06T05:26:25;11.30;;;8.73;;
1693;SDS011;844;47.058;15.472;2023-04-06T05:28:55;10.50;;;9.20;;
1693;SDS011;844;47.058;15.472;2023-04-06T05:31:27;8.37;;;7.50;;
1693;SDS011;844;47.058;15.472;2023-04-06T05:33:58;8.97;;;7.40;;
1693;SDS011;844;47.058;15.472;2023-04-06T05:36:29;10.97;;;6.60;;
1693;SDS011;844;47.058;15.472;2023-04-06T05:39:00;9.30;;;6.53;;
1693;SDS011;844;47.058;15.472;2023-04-06T05:41:32;6.53;;;5.93;;
1693;SDS011;844;47.058;15.472;2023-04-06T05:44:02;8.27;;;6.60;;
1693;SDS011;844;47.058;15.472;2023-04-06T05:46:33;9.30;;;5.80;;
1693;SDS011;844;47.058;15.472;2023-04-06T05:49:04;11.63;;;6.43;;
1693;SDS011;844;47.058;15.472;2023-04-06T05:51:35;8.20;;;6.87;;
1693;SDS011;844;47.058;15.472;2023-04-06T05:54:05;6.43;;;5.63;;
1693;SDS011;844;47.058;15.472;2023-04-06T05:56:37;6.93;;;5.00;;
1693;SDS011;844;47.058;15.472;2023-04-06T05:59:08;6.37;;;5.70;;
1693;SDS011;844;47.058;15.472;2023-04-06T06:01:38;6.93;;;6.23;;
1693;SDS011;844;47.058;15.472;2023-04-06T06:04:08;6.67;;;5.37;;
1693;SDS011;844;47.058;15.472;2023-04-06T06:06:40;6.50;;;5.50;;
1693;SDS011;844;47.058;15.472;2023-04-06T06:09:11;8.93;;;7.20;;
1693;SDS011;844;47.058;15.472;2023-04-06T06:11:43;7.20;;;5.37;;
1693;SDS011;844;47.058;15.472;2023-04-06T06:14:13;7.30;;;5.80;;
1693;SDS011;844;47.058;15.472;2023-04-06T06:16:44;9.40;;;4.80;;
1693;SDS011;844;47.058;15.472;2023-04-06T06:19:15;7.37;;;4.53;;
1693;SDS011;844;47.058;15.472;2023-04-06T06:21:46;6.20;;;4.73;;
1693;SDS011;844;47.058;15.472;2023-04-06T06:24:16;6.10;;;4.63;;
1693;SDS011;844;47.058;15.472;2023-04-06T06:26:48;7.63;;;5.50;;
1693;SDS011;844;47.058;15.472;2023-04-06T06:29:19;7.57;;;5.07;;
1693;SDS011;844;47.058;15.472;2023-04-06T06:31:51;10.20;;;6.03;;
1693;SDS011;844;47.058;15.472;2023-04-06T06:34:21;7.40;;;4.70;;
1693;SDS011;844;47.058;15.472;2023-04-06T06:36:52;5.67;;;4.43;;
1693;SDS011;844;47.058;15.472;2023-04-06T06:39:23;7.17;;;5.53;;
1693;SDS011;844;47.058;15.472;2023-04-06T06:41:55;7.40;;;4.20;;
1693;SDS011;844;47.058;15.472;2023-04-06T06:44:27;10.10;;;5.30;;
1693;SDS011;844;47.058;15.472;2023-04-06T06:46:57;6.93;;;4.13;;
1693;SDS011;844;47.058;15.472;2023-04-06T06:49:27;5.70;;;4.53;;
1693;SDS011;844;47.058;15.472;2023-04-06T06:51:57;4.97;;;4.50;;
1693;SDS011;844;47.058;15.472;2023-04-06T06:54:27;13.03;;;5.37;;
1693;SDS011;844;47.058;15.472;2023-04-06T06:56:58;10.60;;;5.03;;
1693;SDS011;844;47.058;15.472;2023-04-06T06:59:28;7.93;;;5.50;;
1693;SDS011;844;47.058;15.472;2023-04-06T07:01:59;9.13;;;6.47;;
1693;SDS011;844;47.058;15.472;2023-04-06T07:04:29;7.60;;;6.13;;
1693;SDS011;844;47.058;15.472;2023-04-06T07:07:00;10.80;;;6.27;;
1693;SDS011;844;47.058;15.472;2023-04-06T07:09:31;10.53;;;6.40;;
1693;SDS011;844;47.058;15.472;2023-04-06T07:12:05;8.43;;;6.50;;
1693;SDS011;844;47.058;15.472;2023-04-06T07:14:35;7.07;;;6.37;;
1693;SDS011;844;47.058;15.472;2023-04-06T07:17:06;10.03;;;7.63;;
1693;SDS011;844;47.058;15.472;2023-04-06T07:19:37;12.43;;;6.73;;
1693;SDS011;844;47.058;15.472;2023-04-06T07:22:09;11.83;;;7.90;;
1693;SDS011;844;47.058;15.472;2023-04-06T07:24:39;9.33;;;6.13;;
1693;SDS011;844;47.058;15.472;2023-04-06T07:27:11;13.40;;;6.93;;
1693;SDS011;844;47.058;15.472;2023-04-06T07:29:43;7.73;;;6.20;;
1693;SDS011;844;47.058;15.472;2023-04-06T07:32:14;11.67;;;7.23;;
1693;SDS011;844;47.058;15.472;2023-04-06T07:34:44;10.57;;;6.67;;
1693;SDS011;844;47.058;15.472;2023-04-06T07:37:14;10.23;;;6.10;;
1693;SDS011;844;47.058;15.472;2023-04-06T07:39:45;6.83;;;6.17;;
1693;SDS011;844;47.058;15.472;2023-04-06T07:42:18;12.60;;;9.00;;
1693;SDS011;844;47.058;15.472;2023-04-06T07:44:47;13.93;;;7.13;;
1693;SDS011;844;47.058;15.472;2023-04-06T07:47:18;9.03;;;6.87;;
1693;SDS011;844;47.058;15.472;2023-04-06T07:49:48;9.13;;;6.17;;
1693;SDS011;844;47.058;15.472;2023-04-06T07:52:19;11.13;;;6.50;;
1693;SDS011;844;47.058;15.472;2023-04-06T07:54:48;8.93;;;6.00;;
1693;SDS011;844;47.058;15.472;2023-04-06T07:57:22;7.47;;;6.00;;
1693;SDS011;844;47.058;15.472;2023-04-06T07:59:52;7.80;;;6.43;;
1693;SDS011;844;47.058;15.472;2023-04-06T08:02:23;6.90;;;6.20;;
1693;SDS011;844;47.058;15.472;2023-04-06T08:04:54;8.23;;;5.70;;
1693;SDS011;844;47.058;15.472;2023-04-06T08:07:24;12.13;;;5.67;;
1693;SDS011;844;47.058;15.472;2023-04-06T08:09:54;10.53;;;6.10;;
1693;SDS011;844;47.058;15.472;2023-04-06T08:12:27;8.17;;;7.20;;
1693;SDS011;844;47.058;15.472;2023-04-06T08:14:57;9.27;;;7.90;;
1693;SDS011;844;47.058;15.472;2023-04-06T08:17:28;6.47;;;5.83;;
1693;SDS011;844;47.058;15.472;2023-04-06T08:19:59;7.37;;;5.53;;
1693;SDS011;844;47.058;15.472;2023-04-06T08:22:31;6.70;;;5.50;;
1693;SDS011;844;47.058;15.472;2023-04-06T08:25:01;7.43;;;5.60;;
1693;SDS011;844;47.058;15.472;2023-04-06T08:27:35;7.57;;;5.47;;
1693;SDS011;844;47.058;15.472;2023-04-06T08:30:05;7.83;;;5.63;;
1693;SDS011;844;47.058;15.472;2023-04-06T08:32:36;8.03;;;4.70;;
1693;SDS011;844;47.058;15.472;2023-04-06T08:35:07;5.70;;;5.00;;
1693;SDS011;844;47.058;15.472;2023-04-06T08:37:37;7.90;;;5.37;;
1693;SDS011;844;47.058;15.472;2023-04-06T08:40:09;8.67;;;6.07;;
1693;SDS011;844;47.058;15.472;2023-04-06T08:42:44;5.90;;;4.83;;
1693;SDS011;844;47.058;15.472;2023-04-06T08:45:18;5.20;;;4.67;;
1693;SDS011;844;47.058;15.472;2023-04-06T08:47:49;6.50;;;5.80;;
1693;SDS011;844;47.058;15.472;2023-04-06T08:50:22;6.17;;;5.50;;
1693;SDS011;844;47.058;15.472;2023-04-06T08:53:11;5.90;;;5.30;;
1693;SDS011;844;47.058;15.472;2023-04-06T08:55:42;5.60;;;5.03;;
1693;SDS011;844;47.058;15.472;2023-04-06T08:58:15;6.47;;;5.27;;
1693;SDS011;844;47.058;15.472;2023-04-06T09:01:02;5.20;;;4.70;;
1693;SDS011;844;47.058;15.472;2023-04-06T09:03:37;6.00;;;4.20;;
1693;SDS011;844;47.058;15.472;2023-04-06T09:06:09;4.40;;;3.43;;
1693;SDS011;844;47.058;15.472;2023-04-06T09:08:41;4.33;;;3.70;;
1693;SDS011;844;47.058;15.472;2023-04-06T09:11:11;4.23;;;3.70;;
1693;SDS011;844;47.058;15.472;2023-04-06T09:13:48;7.87;;;3.60;;
1693;SDS011;844;47.058;15.472;2023-04-06T09:16:20;4.37;;;3.40;;
1693;SDS011;844;47.058;15.472;2023-04-06T09:18:52;4.00;;;3.60;;
1693;SDS011;844;47.058;15.472;2023-04-06T09:21:23;4.13;;;3.50;;
1693;SDS011;844;47.058;15.472;2023-04-06T09:23:58;7.03;;;3.40;;
1693;SDS011;844;47.058;15.472;2023-04-06T09:26:30;6.10;;;3.43;;
1693;SDS011;844;47.058;15.472;2023-04-06T09:29:04;5.77;;;4.00;;
1693;SDS011;844;47.058;15.472;2023-04-06T09:31:35;3.67;;;3.30;;
1693;SDS011;844;47.058;15.472;2023-04-06T09:34:05;5.83;;;3.90;;
1693;SDS011;844;47.058;15.472;2023-04-06T09:36:36;3.50;;;3.13;;
1693;SDS011;844;47.058;15.472;2023-04-06T09:39:09;5.83;;;4.20;;
1693;SDS011;844;47.058;15.472;2023-04-06T09:41:41;6.03;;;3.30;;
1693;SDS011;844;47.058;15.472;2023-04-06T09:44:15;7.47;;;3.90;;
1693;SDS011;844;47.058;15.472;2023-04-06T09:46:46;5.43;;;3.40;;
1693;SDS011;844;47.058;15.472;2023-04-06T09:49:27;4.50;;;3.57;;
1693;SDS011;844;47.058;15.472;2023-04-06T09:51:59;3.23;;;3.03;;
1693;SDS011;844;47.058;15.472;2023-04-06T09:54:31;3.80;;;3.40;;
1693;SDS011;844;47.058;15.472;2023-04-06T09:57:05;4.97;;;3.77;;
1693;SDS011;844;47.058;15.472;2023-04-06T09:59:47;3.50;;;3.20;;
1693;SDS011;844;47.058;15.472;2023-04-06T10:02:22;4.70;;;3.67;;
1693;SDS011;844;47.058;15.472;2023-04-06T10:04:58;3.00;;;2.70;;
1693;SDS011;844;47.058;15.472;2023-04-06T10:07:30;3.93;;;3.63;;
1693;SDS011;844;47.058;15.472;2023-04-06T10:10:09;2.93;;;2.73;;
1693;SDS011;844;47.058;15.472;2023-04-06T10:12:40;3.10;;;2.90;;
1693;SDS011;844;47.058;15.472;2023-04-06T10:15:15;4.10;;;3.70;;
1693;SDS011;844;47.058;15.472;2023-04-06T10:17:49;4.20;;;3.37;;
1693;SDS011;844;47.058;15.472;2023-04-06T10:20:21;2.90;;;2.60;;
1693;SDS011;844;47.058;15.472;2023-04-06T10:22:55;3.43;;;3.00;;
1693;SDS011;844;47.058;15.472;2023-04-06T10:25:31;3.23;;;2.93;;
1693;SDS011;844;47.058;15.472;2023-04-06T10:28:04;6.13;;;3.30;;
1693;SDS011;844;47.058;15.472;2023-04-06T10:30:41;3.97;;;2.57;;
1693;SDS011;844;47.058;15.472;2023-04-06T10:33:12;3.20;;;2.90;;
1693;SDS011;844;47.058;15.472;2023-04-06T10:35:43;3.53;;;3.07;;
1693;SDS011;844;47.058;15.472;2023-04-06T10:38:13;3.33;;;3.03;;
1693;SDS011;844;47.058;15.472;2023-04-06T10:40:48;3.83;;;2.80;;
1693;SDS011;844;47.058;15.472;2023-04-06T10:43:19;7.13;;;2.97;;
1693;SDS011;844;47.058;15.472;2023-04-06T10:45:57;3.10;;;2.63;;
1693;SDS011;844;47.058;15.472;2023-04-06T10:48:36;5.07;;;4.00;;
1693;SDS011;844;47.058;15.472;2023-04-06T10:51:08;3.20;;;2.90;;
1693;SDS011;844;47.058;15.472;2023-04-06T10:53:40;5.10;;;3.13;;
1693;SDS011;844;47.058;15.472;2023-04-06T10:56:11;5.23;;;3.43;;
1693;SDS011;844;47.058;15.472;2023-04-06T10:58:46;4.03;;;2.93;;
1693;SDS011;844;47.058;15.472;2023-04-06T11:01:20;3.73;;;3.23;;
1693;SDS011;844;47.058;15.472;2023-04-06T11:03:52;4.03;;;2.90;;
1693;SDS011;844;47.058;15.472;2023-04-06T11:06:27;2.57;;;2.13;;
1693;SDS011;844;47.058;15.472;2023-04-06T11:09:00;7.37;;;2.40;;
1693;SDS011;844;47.058;15.472;2023-04-06T11:11:33;3.23;;;2.57;;
1693;SDS011;844;47.058;15.472;2023-04-06T11:14:09;2.83;;;2.27;;
1693;SDS011;844;47.058;15.472;2023-04-06T11:16:42;5.30;;;3.07;;
1693;SDS011;844;47.058;15.472;2023-04-06T11:19:16;3.13;;;2.83;;
1693;SDS011;844;47.058;15.472;2023-04-06T11:21:48;4.20;;;2.57;;
1693;SDS011;844;47.058;15.472;2023-04-06T11:24:20;3.33;;;2.13;;
1693;SDS011;844;47.058;15.472;2023-04-06T11:26:53;2.83;;;2.63;;
1693;SDS011;844;47.058;15.472;2023-04-06T11:29:26;3.20;;;2.17;;
1693;SDS011;844;47.058;15.472;2023-04-06T11:31:59;2.30;;;2.10;;
1693;SDS011;844;47.058;15.472;2023-04-06T11:34:32;2.63;;;2.33;;
1693;SDS011;844;47.058;15.472;2023-04-06T11:37:07;3.50;;;3.00;;
1693;SDS011;844;47.058;15.472;2023-04-06T11:39:39;3.00;;;2.00;;
1693;SDS011;844;47.058;15.472;2023-04-06T11:42:10;2.97;;;2.47;;
1693;SDS011;844;47.058;15.472;2023-04-06T11:44:42;4.17;;;2.80;;
1693;SDS011;844;47.058;15.472;2023-04-06T11:47:16;2.50;;;1.97;;
1693;SDS011;844;47.058;15.472;2023-04-06T11:49:46;3.63;;;2.30;;
1693;SDS011;844;47.058;15.472;2023-04-06T11:52:18;2.77;;;1.73;;
1693;SDS011;844;47.058;15.472;2023-04-06T11:54:49;2.37;;;2.17;;
1693;SDS011;844;47.058;15.472;2023-04-06T11:57:22;2.10;;;1.90;;
1693;SDS011;844;47.058;15.472;2023-04-06T11:59:54;2.27;;;2.07;;
1693;SDS011;844;47.058;15.472;2023-04-06T12:02:28;2.30;;;2.10;;
1693;SDS011;844;47.058;15.472;2023-04-06T12:04:59;2.50;;;2.23;;
1693;SDS011;844;47.058;15.472;2023-04-06T12:07:30;2.40;;;2.17;;
1693;SDS011;844;47.058;15.472;2023-04-06T12:10:02;2.60;;;1.60;;
1693;SDS011;844;47.058;15.472;2023-04-06T12:12:33;2.30;;;2.10;;
1693;SDS011;844;47.058;15.472;2023-04-06T12:15:03;2.57;;;1.90;;
1693;SDS011;844;47.058;15.472;2023-04-06T12:17:36;3.00;;;2.30;;
1693;SDS011;844;47.058;15.472;2023-04-06T12:20:07;3.57;;;1.90;;
1693;SDS011;844;47.058;15.472;2023-04-06T12:22:52;2.43;;;1.93;;
1693;SDS011;844;47.058;15.472;2023-04-06T12:25:24;4.30;;;1.77;;
1693;SDS011;844;47.058;15.472;2023-04-06T12:27:57;2.50;;;1.90;;
1693;SDS011;844;47.058;15.472;2023-04-06T12:30:29;2.30;;;2.10;;
1693;SDS011;844;47.058;15.472;2023-04-06T12:33:01;1.70;;;1.60;;
1693;SDS011;844;47.058;15.472;2023-04-06T12:35:36;3.40;;;2.17;;
1693;SDS011;844;47.058;15.472;2023-04-06T12:38:08;2.60;;;1.70;;
1693;SDS011;844;47.058;15.472;2023-04-06T12:40:39;3.70;;;1.60;;
1693;SDS011;844;47.058;15.472;2023-04-06T12:43:10;2.40;;;1.60;;
1693;SDS011;844;47.058;15.472;2023-04-06T12:45:42;2.10;;;1.80;;
1693;SDS011;844;47.058;15.472;2023-04-06T12:48:14;3.20;;;2.03;;
1693;SDS011;844;47.058;15.472;2023-04-06T12:50:53;2.60;;;2.30;;
1693;SDS011;844;47.058;15.472;2023-04-06T12:53:25;8.23;;;2.60;;
1693;SDS011;844;47.058;15.472;2023-04-06T12:55:55;1.80;;;1.70;;
1693;SDS011;844;47.058;15.472;2023-04-06T12:58:27;2.20;;;2.00;;
1693;SDS011;844;47.058;15.472;2023-04-06T13:00:58;2.53;;;2.00;;
1693;SDS011;844;47.058;15.472;2023-04-06T13:03:32;2.70;;;1.97;;
1693;SDS011;844;47.058;15.472;2023-04-06T13:06:04;1.90;;;1.80;;
1693;SDS011;844;47.058;15.472;2023-04-06T13:08:36;2.57;;;2.03;;
1693;SDS011;844;47.058;15.472;2023-04-06T13:11:08;2.83;;;1.83;;
1693;SDS011;844;47.058;15.472;2023-04-06T13:13:39;3.13;;;2.47;;
1693;SDS011;844;47.058;15.472;2023-04-06T13:16:10;2.70;;;1.83;;
1693;SDS011;844;47.058;15.472;2023-04-06T13:18:42;2.13;;;1.70;;
1693;SDS011;844;47.058;15.472;2023-04-06T13:21:14;2.33;;;1.53;;
1693;SDS011;844;47.058;15.472;2023-04-06T13:23:45;2.00;;;1.80;;
1693;SDS011;844;47.058;15.472;2023-04-06T13:26:15;2.93;;;1.90;;
1693;SDS011;844;47.058;15.472;2023-04-06T13:28:46;2.13;;;1.90;;
1693;SDS011;844;47.058;15.472;2023-04-06T13:31:17;2.60;;;1.47;;
1693;SDS011;844;47.058;15.472;2023-04-06T13:33:51;2.97;;;2.10;;
1693;SDS011;844;47.058;15.472;2023-04-06T13:36:21;1.57;;;1.47;;
1693;SDS011;844;47.058;15.472;2023-04-06T13:38:52;2.50;;;2.00;;
1693;SDS011;844;47.058;15.472;2023-04-06T13:41:23;2.60;;;2.30;;
1693;SDS011;844;47.058;15.472;2023-04-06T13:43:54;4.20;;;1.93;;
1693;SDS011;844;47.058;15.472;2023-04-06T13:46:26;3.53;;;2.50;;
1693;SDS011;844;47.058;15.472;2023-04-06T13:49:00;2.20;;;2.00;;
1693;SDS011;844;47.058;15.472;2023-04-06T13:51:31;1.97;;;1.67;;
1693;SDS011;844;47.058;15.472;2023-04-06T13:54:03;3.20;;;2.10;;
1693;SDS011;844;47.058;15.472;2023-04-06T13:56:33;3.10;;;2.10;;
1693;SDS011;844;47.058;15.472;2023-04-06T13:59:04;2.10;;;1.80;;
1693;SDS011;844;47.058;15.472;2023-04-06T14:01:35;2.00;;;1.80;;
1693;SDS011;844;47.058;15.472;2023-04-06T14:04:08;2.87;;;1.83;;
1693;SDS011;844;47.058;15.472;2023-04-06T14:06:39;2.83;;;1.90;;
1693;SDS011;844;47.058;15.472;2023-04-06T14:09:11;3.40;;;1.50;;
1693;SDS011;844;47.058;15.472;2023-04-06T14:11:42;1.90;;;1.80;;
1693;SDS011;844;47.058;15.472;2023-04-06T14:14:13;1.77;;;1.67;;
1693;SDS011;844;47.058;15.472;2023-04-06T14:16:44;2.60;;;2.07;;
1693;SDS011;844;47.058;15.472;2023-04-06T14:19:17;2.00;;;1.83;;
1693;SDS011;844;47.058;15.472;2023-04-06T14:21:48;1.70;;;1.60;;
1693;SDS011;844;47.058;15.472;2023-04-06T14:24:20;2.20;;;2.00;;
1693;SDS011;844;47.058;15.472;2023-04-06T14:26:50;2.80;;;2.27;;
1693;SDS011;844;47.058;15.472;2023-04-06T14:29:21;2.03;;;1.73;;
1693;SDS011;844;47.058;15.472;2023-04-06T14:31:51;2.37;;;1.93;;
1693;SDS011;844;47.058;15.472;2023-04-06T14:34:33;2.27;;;1.87;;
1693;SDS011;844;47.058;15.472;2023-04-06T14:37:07;1.30;;;1.20;;
1693;SDS011;844;47.058;15.472;2023-04-06T14:39:38;2.70;;;1.40;;
1693;SDS011;844;47.058;15.472;2023-04-06T14:42:10;1.80;;;1.70;;
1693;SDS011;844;47.058;15.472;2023-04-06T14:44:41;1.70;;;1.57;;
1693;SDS011;844;47.058;15.472;2023-04-06T14:47:12;3.23;;;1.70;;
1693;SDS011;844;47.058;15.472;2023-04-06T14:49:50;1.87;;;1.70;;
1693;SDS011;844;47.058;15.472;2023-04-06T14:52:21;3.20;;;1.73;;
1693;SDS011;844;47.058;15.472;2023-04-06T14:54:52;2.10;;;1.53;;
1693;SDS011;844;47.058;15.472;2023-04-06T14:57:24;3.53;;;1.70;;
1693;SDS011;844;47.058;15.472;2023-04-06T14:59:56;1.80;;;1.70;;
1693;SDS011;844;47.058;15.472;2023-04-06T15:02:26;2.00;;;1.80;;
1693;SDS011;844;47.058;15.472;2023-04-06T15:05:01;1.80;;;1.70;;
1693;SDS011;844;47.058;15.472;2023-04-06T15:07:33;1.83;;;1.40;;
1693;SDS011;844;47.058;15.472;2023-04-06T15:10:04;2.60;;;1.97;;
1693;SDS011;844;47.058;15.472;2023-04-06T15:12:38;2.40;;;1.53;;
1693;SDS011;844;47.058;15.472;2023-04-06T15:15:10;2.10;;;1.77;;
1693;SDS011;844;47.058;15.472;2023-04-06T15:17:42;2.23;;;1.83;;
1693;SDS011;844;47.058;15.472;2023-04-06T15:20:13;2.03;;;1.80;;
1693;SDS011;844;47.058;15.472;2023-04-06T15:22:44;2.07;;;1.50;;
1693;SDS011;844;47.058;15.472;2023-04-06T15:25:14;1.30;;;1.20;;
1693;SDS011;844;47.058;15.472;2023-04-06T15:27:45;2.80;;;2.17;;
1693;SDS011;844;47.058;15.472;2023-04-06T15:30:15;2.00;;;1.60;;
1693;SDS011;844;47.058;15.472;2023-04-06T15:32:51;2.30;;;1.10;;
1693;SDS011;844;47.058;15.472;2023-04-06T15:35:24;2.03;;;1.30;;
1693;SDS011;844;47.058;15.472;2023-04-06T15:37:54;2.63;;;1.90;;
1693;SDS011;844;47.058;15.472;2023-04-06T15:40:25;1.90;;;1.70;;
1693;SDS011;844;47.058;15.472;2023-04-06T15:42:58;2.17;;;1.80;;